sensor_id;sensor_type;location;lat;lon;timestamp;P1;durP1;ratioP1;P2;durP2;ratioP2
27201;SDS011;14717;46.924;15.474;2023-12-20T00:00:51;22.38;;;9.25;;
27201;SDS011;14717;46.924;15.474;2023-12-20T00:03:16;15.80;;;9.35;;
27201;SDS011;14717;46.924;15.474;2023-12-20T00:05:42;19.40;;;9.35;;
27201;SDS011;14717;46.924;15.474;2023-12-20T00:08:07;19.25;;;9.00;;
27201;SDS011;14717;46.924;15.474;2023-12-20T00:10:32;16.08;;;9.27;;
27201;SDS011;14717;46.924;15.474;2023-12-20T00:12:58;16.92;;;8.35;;
27201;SDS011;14717;46.924;15.474;2023-12-20T00:15:23;20.95;;;9.20;;
27201;SDS011;14717;46.924;15.474;2023-12-20T00:17:48;16.13;;;8.55;;
27201;SDS011;14717;46.924;15.474;2023-12-20T00:20:14;21.73;;;9.00;;
27201;SDS011;14717;46.924;15.474;2023-12-20T00:22:39;22.10;;;9.43;;
27201;SDS011;14717;46.924;15.474;2023-12-20T00:25:04;15.90;;;8.82;;
27201;SDS011;14717;46.924;15.474;2023-12-20T00:27:30;17.17;;;9.00;;
27201;SDS011;14717;46.924;15.474;2023-12-20T00:29:55;16.52;;;8.57;;
27201;SDS011;14717;46.924;15.474;2023-12-20T00:32:20;17.35;;;8.77;;
27201;SDS011;14717;46.924;15.474;2023-12-20T00:34:46;19.88;;;9.77;;
27201;SDS011;14717;46.924;15.474;2023-12-20T00:37:11;15.68;;;8.50;;
27201;SDS011;14717;46.924;15.474;2023-12-20T00:39:36;17.40;;;8.80;;
27201;SDS011;14717;46.924;15.474;2023-12-20T00:42:02;17.40;;;8.98;;
27201;SDS011;14717;46.924;15.474;2023-12-20T00:44:27;20.73;;;9.05;;
27201;SDS011;14717;46.924;15.474;2023-12-20T00:46:53;18.48;;;7.70;;
27201;SDS011;14717;46.924;15.474;2023-12-20T00:49:18;21.23;;;8.02;;
27201;SDS011;14717;46.924;15.474;2023-12-20T00:51:43;16.77;;;7.78;;
27201;SDS011;14717;46.924;15.474;2023-12-20T00:54:09;16.95;;;8.13;;
27201;SDS011;14717;46.924;15.474;2023-12-20T00:56:34;17.38;;;8.60;;
27201;SDS011;14717;46.924;15.474;2023-12-20T00:59:00;21.50;;;8.25;;
27201;SDS011;14717;46.924;15.474;2023-12-20T01:01:25;18.80;;;8.30;;
27201;SDS011;14717;46.924;15.474;2023-12-20T01:03:51;19.50;;;8.55;;
27201;SDS011;14717;46.924;15.474;2023-12-20T01:06:16;15.40;;;7.20;;
27201;SDS011;14717;46.924;15.474;2023-12-20T01:08:42;16.45;;;7.93;;
27201;SDS011;14717;46.924;15.474;2023-12-20T01:11:07;16.77;;;8.27;;
27201;SDS011;14717;46.924;15.474;2023-12-20T01:13:33;21.70;;;9.20;;
27201;SDS011;14717;46.924;15.474;2023-12-20T01:15:58;24.77;;;10.93;;
27201;SDS011;14717;46.924;15.474;2023-12-20T01:18:23;28.25;;;11.10;;
27201;SDS011;14717;46.924;15.474;2023-12-20T01:20:49;25.70;;;11.68;;
27201;SDS011;14717;46.924;15.474;2023-12-20T01:23:14;22.73;;;10.52;;
27201;SDS011;14717;46.924;15.474;2023-12-20T01:25:40;23.05;;;10.90;;
27201;SDS011;14717;46.924;15.474;2023-12-20T01:28:05;22.98;;;10.45;;
27201;SDS011;14717;46.924;15.474;2023-12-20T01:30:30;28.45;;;10.95;;
27201;SDS011;14717;46.924;15.474;2023-12-20T01:32:56;24.70;;;10.50;;
27201;SDS011;14717;46.924;15.474;2023-12-20T01:35:21;30.17;;;10.63;;
27201;SDS011;14717;46.924;15.474;2023-12-20T01:37:46;22.65;;;10.25;;
27201;SDS011;14717;46.924;15.474;2023-12-20T01:40:12;26.00;;;10.88;;
27201;SDS011;14717;46.924;15.474;2023-12-20T01:42:37;24.33;;;10.52;;
27201;SDS011;14717;46.924;15.474;2023-12-20T01:45:03;26.10;;;11.52;;
27201;SDS011;14717;46.924;15.474;2023-12-20T01:47:28;23.85;;;10.82;;
27201;SDS011;14717;46.924;15.474;2023-12-20T01:49:54;18.85;;;10.40;;
27201;SDS011;14717;46.924;15.474;2023-12-20T01:52:21;21.98;;;10.90;;
27201;SDS011;14717;46.924;15.474;2023-12-20T01:54:47;26.40;;;11.55;;
27201;SDS011;14717;46.924;15.474;2023-12-20T01:57:13;21.23;;;10.63;;
27201;SDS011;14717;46.924;15.474;2023-12-20T01:59:39;24.80;;;10.27;;
27201;SDS011;14717;46.924;15.474;2023-12-20T02:02:05;20.90;;;10.40;;
27201;SDS011;14717;46.924;15.474;2023-12-20T02:04:32;19.00;;;9.73;;
27201;SDS011;14717;46.924;15.474;2023-12-20T02:06:58;22.23;;;9.82;;
27201;SDS011;14717;46.924;15.474;2023-12-20T02:09:24;23.15;;;10.55;;
27201;SDS011;14717;46.924;15.474;2023-12-20T02:11:50;26.08;;;9.95;;
27201;SDS011;14717;46.924;15.474;2023-12-20T02:14:15;15.65;;;8.90;;
27201;SDS011;14717;46.924;15.474;2023-12-20T02:16:41;22.98;;;9.93;;
27201;SDS011;14717;46.924;15.474;2023-12-20T02:19:07;20.27;;;9.90;;
27201;SDS011;14717;46.924;15.474;2023-12-20T02:21:38;21.45;;;9.63;;
27201;SDS011;14717;46.924;15.474;2023-12-20T02:24:03;21.35;;;9.50;;
27201;SDS011;14717;46.924;15.474;2023-12-20T02:26:29;20.98;;;9.88;;
27201;SDS011;14717;46.924;15.474;2023-12-20T02:28:54;18.85;;;8.57;;
27201;SDS011;14717;46.924;15.474;2023-12-20T02:31:23;15.82;;;8.27;;
27201;SDS011;14717;46.924;15.474;2023-12-20T02:33:48;16.70;;;8.00;;
27201;SDS011;14717;46.924;15.474;2023-12-20T02:36:14;18.17;;;8.45;;
27201;SDS011;14717;46.924;15.474;2023-12-20T02:38:39;17.02;;;7.22;;
27201;SDS011;14717;46.924;15.474;2023-12-20T02:41:05;15.93;;;7.72;;
27201;SDS011;14717;46.924;15.474;2023-12-20T02:43:30;16.08;;;7.53;;
27201;SDS011;14717;46.924;15.474;2023-12-20T02:45:55;16.33;;;7.78;;
27201;SDS011;14717;46.924;15.474;2023-12-20T02:48:22;16.10;;;7.20;;
27201;SDS011;14717;46.924;15.474;2023-12-20T02:53:14;13.50;;;6.90;;
27201;SDS011;14717;46.924;15.474;2023-12-20T02:55:39;14.48;;;6.75;;
27201;SDS011;14717;46.924;15.474;2023-12-20T02:58:05;15.35;;;7.55;;
27201;SDS011;14717;46.924;15.474;2023-12-20T03:00:30;14.25;;;7.10;;
27201;SDS011;14717;46.924;15.474;2023-12-20T03:02:55;15.43;;;7.55;;
27201;SDS011;14717;46.924;15.474;2023-12-20T03:05:21;18.42;;;7.72;;
27201;SDS011;14717;46.924;15.474;2023-12-20T03:07:46;15.93;;;7.35;;
27201;SDS011;14717;46.924;15.474;2023-12-20T03:10:11;15.38;;;7.95;;
27201;SDS011;14717;46.924;15.474;2023-12-20T03:12:37;16.20;;;7.68;;
27201;SDS011;14717;46.924;15.474;2023-12-20T03:15:02;16.05;;;7.25;;
27201;SDS011;14717;46.924;15.474;2023-12-20T03:17:28;15.70;;;7.82;;
27201;SDS011;14717;46.924;15.474;2023-12-20T03:19:53;15.02;;;7.20;;
27201;SDS011;14717;46.924;15.474;2023-12-20T03:22:18;15.02;;;6.63;;
27201;SDS011;14717;46.924;15.474;2023-12-20T03:24:44;14.63;;;7.97;;
27201;SDS011;14717;46.924;15.474;2023-12-20T03:27:09;15.95;;;7.50;;
27201;SDS011;14717;46.924;15.474;2023-12-20T03:29:34;16.02;;;7.22;;
27201;SDS011;14717;46.924;15.474;2023-12-20T03:32:00;15.27;;;7.63;;
27201;SDS011;14717;46.924;15.474;2023-12-20T03:34:26;13.20;;;6.63;;
27201;SDS011;14717;46.924;15.474;2023-12-20T03:36:51;15.80;;;7.53;;
27201;SDS011;14717;46.924;15.474;2023-12-20T03:39:17;15.32;;;7.63;;
27201;SDS011;14717;46.924;15.474;2023-12-20T03:41:42;14.52;;;7.35;;
27201;SDS011;14717;46.924;15.474;2023-12-20T03:44:07;16.63;;;7.20;;
27201;SDS011;14717;46.924;15.474;2023-12-20T03:46:33;20.00;;;8.60;;
27201;SDS011;14717;46.924;15.474;2023-12-20T03:48:58;23.17;;;9.20;;
27201;SDS011;14717;46.924;15.474;2023-12-20T03:51:23;28.27;;;11.93;;
27201;SDS011;14717;46.924;15.474;2023-12-20T03:53:49;20.70;;;10.18;;
27201;SDS011;14717;46.924;15.474;2023-12-20T03:56:14;27.50;;;11.18;;
27201;SDS011;14717;46.924;15.474;2023-12-20T03:58:39;23.75;;;10.90;;
27201;SDS011;14717;46.924;15.474;2023-12-20T04:01:09;20.73;;;10.43;;
27201;SDS011;14717;46.924;15.474;2023-12-20T04:03:36;21.95;;;11.52;;
27201;SDS011;14717;46.924;15.474;2023-12-20T04:06:03;20.50;;;9.75;;
27201;SDS011;14717;46.924;15.474;2023-12-20T04:08:28;17.83;;;8.77;;
27201;SDS011;14717;46.924;15.474;2023-12-20T04:10:53;22.95;;;8.98;;
27201;SDS011;14717;46.924;15.474;2023-12-20T04:13:19;19.58;;;9.15;;
27201;SDS011;14717;46.924;15.474;2023-12-20T04:15:44;17.90;;;8.88;;
27201;SDS011;14717;46.924;15.474;2023-12-20T04:18:09;20.10;;;7.95;;
27201;SDS011;14717;46.924;15.474;2023-12-20T04:20:35;18.92;;;8.05;;
27201;SDS011;14717;46.924;15.474;2023-12-20T04:23:00;20.35;;;8.25;;
27201;SDS011;14717;46.924;15.474;2023-12-20T04:25:26;18.40;;;7.80;;
27201;SDS011;14717;46.924;15.474;2023-12-20T04:27:51;16.13;;;8.18;;
27201;SDS011;14717;46.924;15.474;2023-12-20T04:30:16;16.80;;;7.55;;
27201;SDS011;14717;46.924;15.474;2023-12-20T04:32:42;16.63;;;7.75;;
27201;SDS011;14717;46.924;15.474;2023-12-20T04:35:07;16.23;;;8.35;;
27201;SDS011;14717;46.924;15.474;2023-12-20T04:37:33;20.70;;;7.78;;
27201;SDS011;14717;46.924;15.474;2023-12-20T04:39:59;17.10;;;8.70;;
27201;SDS011;14717;46.924;15.474;2023-12-20T04:42:24;21.05;;;8.77;;
27201;SDS011;14717;46.924;15.474;2023-12-20T04:44:49;17.73;;;8.27;;
27201;SDS011;14717;46.924;15.474;2023-12-20T04:47:15;21.88;;;9.32;;
27201;SDS011;14717;46.924;15.474;2023-12-20T04:49:40;16.65;;;8.60;;
27201;SDS011;14717;46.924;15.474;2023-12-20T04:52:05;15.98;;;8.55;;
27201;SDS011;14717;46.924;15.474;2023-12-20T04:54:31;21.85;;;9.52;;
27201;SDS011;14717;46.924;15.474;2023-12-20T04:56:56;18.83;;;9.00;;
27201;SDS011;14717;46.924;15.474;2023-12-20T04:59:21;20.38;;;9.77;;
27201;SDS011;14717;46.924;15.474;2023-12-20T05:01:47;24.23;;;10.00;;
27201;SDS011;14717;46.924;15.474;2023-12-20T05:04:12;22.20;;;9.32;;
27201;SDS011;14717;46.924;15.474;2023-12-20T05:06:38;18.90;;;8.32;;
27201;SDS011;14717;46.924;15.474;2023-12-20T05:09:03;16.83;;;8.27;;
27201;SDS011;14717;46.924;15.474;2023-12-20T05:11:29;20.15;;;9.38;;
27201;SDS011;14717;46.924;15.474;2023-12-20T05:13:54;19.48;;;8.60;;
27201;SDS011;14717;46.924;15.474;2023-12-20T05:16:19;17.27;;;8.90;;
27201;SDS011;14717;46.924;15.474;2023-12-20T05:18:45;16.45;;;8.15;;
27201;SDS011;14717;46.924;15.474;2023-12-20T05:21:15;15.23;;;8.13;;
27201;SDS011;14717;46.924;15.474;2023-12-20T05:23:40;19.75;;;8.48;;
27201;SDS011;14717;46.924;15.474;2023-12-20T05:26:06;17.10;;;9.20;;
27201;SDS011;14717;46.924;15.474;2023-12-20T05:28:31;20.38;;;8.13;;
27201;SDS011;14717;46.924;15.474;2023-12-20T05:30:57;15.77;;;7.65;;
27201;SDS011;14717;46.924;15.474;2023-12-20T05:33:22;13.82;;;6.88;;
27201;SDS011;14717;46.924;15.474;2023-12-20T05:35:48;17.23;;;8.13;;
27201;SDS011;14717;46.924;15.474;2023-12-20T05:38:13;18.42;;;8.35;;
27201;SDS011;14717;46.924;15.474;2023-12-20T05:40:38;18.30;;;7.53;;
27201;SDS011;14717;46.924;15.474;2023-12-20T05:43:04;16.75;;;8.65;;
27201;SDS011;14717;46.924;15.474;2023-12-20T05:45:29;16.50;;;8.02;;
27201;SDS011;14717;46.924;15.474;2023-12-20T05:47:54;15.90;;;7.93;;
27201;SDS011;14717;46.924;15.474;2023-12-20T05:50:20;17.70;;;8.45;;
27201;SDS011;14717;46.924;15.474;2023-12-20T05:52:46;18.70;;;9.05;;
27201;SDS011;14717;46.924;15.474;2023-12-20T05:55:11;16.88;;;8.23;;
27201;SDS011;14717;46.924;15.474;2023-12-20T05:57:36;17.75;;;8.27;;
27201;SDS011;14717;46.924;15.474;2023-12-20T06:00:02;17.52;;;8.40;;
27201;SDS011;14717;46.924;15.474;2023-12-20T06:02:28;17.88;;;7.68;;
27201;SDS011;14717;46.924;15.474;2023-12-20T06:04:54;14.82;;;7.95;;
27201;SDS011;14717;46.924;15.474;2023-12-20T06:07:19;17.58;;;8.00;;
27201;SDS011;14717;46.924;15.474;2023-12-20T06:09:45;16.23;;;7.78;;
27201;SDS011;14717;46.924;15.474;2023-12-20T06:12:11;19.08;;;7.50;;
27201;SDS011;14717;46.924;15.474;2023-12-20T06:14:36;20.50;;;10.45;;
27201;SDS011;14717;46.924;15.474;2023-12-20T06:17:02;19.90;;;9.02;;
27201;SDS011;14717;46.924;15.474;2023-12-20T06:19:27;15.98;;;8.05;;
27201;SDS011;14717;46.924;15.474;2023-12-20T06:21:53;15.70;;;8.13;;
27201;SDS011;14717;46.924;15.474;2023-12-20T06:24:18;16.75;;;9.02;;
27201;SDS011;14717;46.924;15.474;2023-12-20T06:26:44;16.65;;;8.02;;
27201;SDS011;14717;46.924;15.474;2023-12-20T06:29:09;17.85;;;8.27;;
27201;SDS011;14717;46.924;15.474;2023-12-20T06:31:34;16.05;;;7.72;;
27201;SDS011;14717;46.924;15.474;2023-12-20T06:34:00;16.38;;;7.57;;
27201;SDS011;14717;46.924;15.474;2023-12-20T06:36:26;14.18;;;6.90;;
27201;SDS011;14717;46.924;15.474;2023-12-20T06:38:51;15.32;;;7.78;;
27201;SDS011;14717;46.924;15.474;2023-12-20T06:41:17;14.55;;;7.40;;
27201;SDS011;14717;46.924;15.474;2023-12-20T06:43:42;15.98;;;8.65;;
27201;SDS011;14717;46.924;15.474;2023-12-20T06:46:08;14.38;;;7.15;;
27201;SDS011;14717;46.924;15.474;2023-12-20T06:48:34;16.73;;;8.52;;
27201;SDS011;14717;46.924;15.474;2023-12-20T06:51:00;17.95;;;7.88;;
27201;SDS011;14717;46.924;15.474;2023-12-20T06:53:29;16.50;;;8.23;;
27201;SDS011;14717;46.924;15.474;2023-12-20T06:55:55;18.02;;;8.70;;
27201;SDS011;14717;46.924;15.474;2023-12-20T06:58:23;14.43;;;8.23;;
27201;SDS011;14717;46.924;15.474;2023-12-20T07:00:48;16.50;;;8.00;;
27201;SDS011;14717;46.924;15.474;2023-12-20T07:03:15;16.58;;;8.38;;
27201;SDS011;14717;46.924;15.474;2023-12-20T07:05:41;16.10;;;8.48;;
27201;SDS011;14717;46.924;15.474;2023-12-20T07:08:06;21.08;;;9.45;;
27201;SDS011;14717;46.924;15.474;2023-12-20T07:10:32;14.32;;;8.05;;
27201;SDS011;14717;46.924;15.474;2023-12-20T07:12:57;16.90;;;8.45;;
27201;SDS011;14717;46.924;15.474;2023-12-20T07:15:23;15.60;;;8.52;;
27201;SDS011;14717;46.924;15.474;2023-12-20T07:17:48;14.82;;;7.90;;
27201;SDS011;14717;46.924;15.474;2023-12-20T07:20:14;19.40;;;9.77;;
27201;SDS011;14717;46.924;15.474;2023-12-20T07:22:40;14.27;;;8.70;;
27201;SDS011;14717;46.924;15.474;2023-12-20T07:25:05;22.30;;;10.55;;
27201;SDS011;14717;46.924;15.474;2023-12-20T07:27:31;16.85;;;8.98;;
27201;SDS011;14717;46.924;15.474;2023-12-20T07:29:57;18.02;;;8.82;;
27201;SDS011;14717;46.924;15.474;2023-12-20T07:32:22;19.27;;;8.07;;
27201;SDS011;14717;46.924;15.474;2023-12-20T07:34:47;17.98;;;8.85;;
27201;SDS011;14717;46.924;15.474;2023-12-20T07:37:13;24.38;;;10.32;;
27201;SDS011;14717;46.924;15.474;2023-12-20T07:39:41;17.65;;;8.07;;
27201;SDS011;14717;46.924;15.474;2023-12-20T07:42:07;18.02;;;8.25;;
27201;SDS011;14717;46.924;15.474;2023-12-20T07:44:33;21.42;;;9.80;;
27201;SDS011;14717;46.924;15.474;2023-12-20T07:46:59;20.58;;;10.10;;
27201;SDS011;14717;46.924;15.474;2023-12-20T07:49:24;24.75;;;11.30;;
27201;SDS011;14717;46.924;15.474;2023-12-20T07:51:49;24.02;;;9.82;;
27201;SDS011;14717;46.924;15.474;2023-12-20T07:54:15;16.70;;;9.27;;
27201;SDS011;14717;46.924;15.474;2023-12-20T07:56:41;24.13;;;9.63;;
27201;SDS011;14717;46.924;15.474;2023-12-20T07:59:06;19.63;;;8.65;;
27201;SDS011;14717;46.924;15.474;2023-12-20T08:01:31;23.38;;;10.40;;
27201;SDS011;14717;46.924;15.474;2023-12-20T08:03:57;19.42;;;9.38;;
27201;SDS011;14717;46.924;15.474;2023-12-20T08:06:22;23.75;;;9.52;;
27201;SDS011;14717;46.924;15.474;2023-12-20T08:08:47;15.45;;;8.15;;
27201;SDS011;14717;46.924;15.474;2023-12-20T08:11:13;14.25;;;7.68;;
27201;SDS011;14717;46.924;15.474;2023-12-20T08:13:38;14.23;;;7.32;;
27201;SDS011;14717;46.924;15.474;2023-12-20T08:16:04;26.30;;;9.93;;
27201;SDS011;14717;46.924;15.474;2023-12-20T08:18:29;31.35;;;11.57;;
27201;SDS011;14717;46.924;15.474;2023-12-20T08:20:54;29.40;;;9.43;;
27201;SDS011;14717;46.924;15.474;2023-12-20T08:23:20;32.35;;;10.73;;
27201;SDS011;14717;46.924;15.474;2023-12-20T08:25:46;25.98;;;9.45;;
27201;SDS011;14717;46.924;15.474;2023-12-20T08:28:11;26.00;;;9.27;;
27201;SDS011;14717;46.924;15.474;2023-12-20T08:30:37;20.23;;;8.00;;
27201;SDS011;14717;46.924;15.474;2023-12-20T08:33:03;20.15;;;9.02;;
27201;SDS011;14717;46.924;15.474;2023-12-20T08:35:29;18.33;;;8.00;;
27201;SDS011;14717;46.924;15.474;2023-12-20T08:37:55;15.57;;;8.38;;
27201;SDS011;14717;46.924;15.474;2023-12-20T08:40:20;22.17;;;10.15;;
27201;SDS011;14717;46.924;15.474;2023-12-20T08:42:45;15.88;;;8.25;;
27201;SDS011;14717;46.924;15.474;2023-12-20T08:45:11;16.98;;;8.50;;
27201;SDS011;14717;46.924;15.474;2023-12-20T08:47:36;18.23;;;8.90;;
27201;SDS011;14717;46.924;15.474;2023-12-20T08:50:02;18.35;;;8.57;;
27201;SDS011;14717;46.924;15.474;2023-12-20T08:52:28;19.45;;;9.63;;
27201;SDS011;14717;46.924;15.474;2023-12-20T08:54:54;18.98;;;9.40;;
27201;SDS011;14717;46.924;15.474;2023-12-20T08:57:19;20.80;;;9.57;;
27201;SDS011;14717;46.924;15.474;2023-12-20T08:59:49;22.95;;;10.25;;
27201;SDS011;14717;46.924;15.474;2023-12-20T09:02:15;18.70;;;10.05;;
27201;SDS011;14717;46.924;15.474;2023-12-20T09:04:41;18.42;;;9.73;;
27201;SDS011;14717;46.924;15.474;2023-12-20T09:07:07;20.23;;;9.80;;
27201;SDS011;14717;46.924;15.474;2023-12-20T09:09:32;15.80;;;8.02;;
27201;SDS011;14717;46.924;15.474;2023-12-20T09:11:58;15.65;;;8.95;;
27201;SDS011;14717;46.924;15.474;2023-12-20T09:14:23;20.02;;;7.45;;
27201;SDS011;14717;46.924;15.474;2023-12-20T09:16:49;15.10;;;8.02;;
27201;SDS011;14717;46.924;15.474;2023-12-20T09:19:16;15.00;;;7.90;;
27201;SDS011;14717;46.924;15.474;2023-12-20T09:21:42;15.68;;;7.35;;
27201;SDS011;14717;46.924;15.474;2023-12-20T09:24:07;11.93;;;6.45;;
27201;SDS011;14717;46.924;15.474;2023-12-20T09:26:33;16.50;;;7.15;;
27201;SDS011;14717;46.924;15.474;2023-12-20T09:28:59;14.75;;;7.57;;
27201;SDS011;14717;46.924;15.474;2023-12-20T09:31:24;14.68;;;6.95;;
27201;SDS011;14717;46.924;15.474;2023-12-20T09:33:50;15.98;;;6.90;;
27201;SDS011;14717;46.924;15.474;2023-12-20T09:36:15;13.63;;;7.43;;
27201;SDS011;14717;46.924;15.474;2023-12-20T09:38:40;17.63;;;8.00;;
27201;SDS011;14717;46.924;15.474;2023-12-20T09:41:08;14.55;;;7.25;;
27201;SDS011;14717;46.924;15.474;2023-12-20T09:43:35;13.38;;;6.78;;
27201;SDS011;14717;46.924;15.474;2023-12-20T09:46:02;21.02;;;8.05;;
27201;SDS011;14717;46.924;15.474;2023-12-20T09:48:32;17.90;;;7.70;;
27201;SDS011;14717;46.924;15.474;2023-12-20T09:50:58;15.70;;;7.25;;
27201;SDS011;14717;46.924;15.474;2023-12-20T09:53:24;16.17;;;7.30;;
27201;SDS011;14717;46.924;15.474;2023-12-20T09:55:55;20.88;;;9.73;;
27201;SDS011;14717;46.924;15.474;2023-12-20T09:58:23;21.42;;;9.32;;
27201;SDS011;14717;46.924;15.474;2023-12-20T10:00:49;25.15;;;11.10;;
27201;SDS011;14717;46.924;15.474;2023-12-20T10:03:15;18.38;;;8.48;;
27201;SDS011;14717;46.924;15.474;2023-12-20T10:05:41;20.20;;;9.23;;
27201;SDS011;14717;46.924;15.474;2023-12-20T10:08:09;19.35;;;9.85;;
27201;SDS011;14717;46.924;15.474;2023-12-20T10:10:34;19.08;;;10.20;;
27201;SDS011;14717;46.924;15.474;2023-12-20T10:15:36;18.02;;;10.02;;
27201;SDS011;14717;46.924;15.474;2023-12-20T10:20:28;18.33;;;10.20;;
27201;SDS011;14717;46.924;15.474;2023-12-20T10:22:54;20.23;;;10.02;;
27201;SDS011;14717;46.924;15.474;2023-12-20T10:27:46;21.80;;;9.60;;
27201;SDS011;14717;46.924;15.474;2023-12-20T10:30:12;20.73;;;8.88;;
27201;SDS011;14717;46.924;15.474;2023-12-20T10:32:39;19.15;;;9.95;;
27201;SDS011;14717;46.924;15.474;2023-12-20T10:35:05;23.17;;;9.15;;
27201;SDS011;14717;46.924;15.474;2023-12-20T10:37:34;17.98;;;8.27;;
27201;SDS011;14717;46.924;15.474;2023-12-20T10:40:00;13.93;;;7.88;;
27201;SDS011;14717;46.924;15.474;2023-12-20T10:42:29;15.55;;;8.52;;
27201;SDS011;14717;46.924;15.474;2023-12-20T10:44:55;15.00;;;8.30;;
27201;SDS011;14717;46.924;15.474;2023-12-20T10:47:21;15.10;;;8.18;;
27201;SDS011;14717;46.924;15.474;2023-12-20T10:49:49;13.20;;;7.10;;
27201;SDS011;14717;46.924;15.474;2023-12-20T10:52:17;16.50;;;7.68;;
27201;SDS011;14717;46.924;15.474;2023-12-20T10:54:42;15.10;;;8.02;;
27201;SDS011;14717;46.924;15.474;2023-12-20T10:57:09;13.50;;;7.28;;
27201;SDS011;14717;46.924;15.474;2023-12-20T10:59:37;12.93;;;7.90;;
27201;SDS011;14717;46.924;15.474;2023-12-20T11:02:03;13.75;;;7.20;;
27201;SDS011;14717;46.924;15.474;2023-12-20T11:04:39;19.48;;;9.48;;
27201;SDS011;14717;46.924;15.474;2023-12-20T11:07:15;14.00;;;6.95;;
27201;SDS011;14717;46.924;15.474;2023-12-20T11:10:03;12.95;;;7.43;;
27201;SDS011;14717;46.924;15.474;2023-12-20T11:15:40;20.77;;;10.25;;
27201;SDS011;14717;46.924;15.474;2023-12-20T11:18:05;14.38;;;8.38;;
27201;SDS011;14717;46.924;15.474;2023-12-20T11:20:35;17.58;;;9.05;;
27201;SDS011;14717;46.924;15.474;2023-12-20T11:23:02;17.20;;;9.15;;
27201;SDS011;14717;46.924;15.474;2023-12-20T11:25:27;16.88;;;8.18;;
27201;SDS011;14717;46.924;15.474;2023-12-20T11:28:11;17.63;;;8.65;;
27201;SDS011;14717;46.924;15.474;2023-12-20T11:30:41;16.42;;;8.10;;
27201;SDS011;14717;46.924;15.474;2023-12-20T11:33:14;15.90;;;8.32;;
27201;SDS011;14717;46.924;15.474;2023-12-20T11:35:41;11.35;;;6.43;;
27201;SDS011;14717;46.924;15.474;2023-12-20T11:38:09;12.65;;;7.70;;
27201;SDS011;14717;46.924;15.474;2023-12-20T11:40:35;13.27;;;6.40;;
27201;SDS011;14717;46.924;15.474;2023-12-20T11:43:02;16.05;;;6.15;;
27201;SDS011;14717;46.924;15.474;2023-12-20T11:45:27;13.45;;;6.60;;
27201;SDS011;14717;46.924;15.474;2023-12-20T11:47:53;9.95;;;5.80;;
27201;SDS011;14717;46.924;15.474;2023-12-20T11:50:19;12.23;;;6.65;;
27201;SDS011;14717;46.924;15.474;2023-12-20T11:52:46;10.15;;;6.63;;
27201;SDS011;14717;46.924;15.474;2023-12-20T11:55:12;10.00;;;6.18;;
27201;SDS011;14717;46.924;15.474;2023-12-20T11:57:37;12.73;;;6.10;;
27201;SDS011;14717;46.924;15.474;2023-12-20T12:00:03;11.85;;;6.00;;
27201;SDS011;14717;46.924;15.474;2023-12-20T12:02:29;12.88;;;5.72;;
27201;SDS011;14717;46.924;15.474;2023-12-20T12:04:55;11.45;;;5.80;;
27201;SDS011;14717;46.924;15.474;2023-12-20T12:07:21;12.35;;;6.45;;
27201;SDS011;14717;46.924;15.474;2023-12-20T12:09:47;10.43;;;5.70;;
27201;SDS011;14717;46.924;15.474;2023-12-20T12:12:13;12.77;;;5.78;;
27201;SDS011;14717;46.924;15.474;2023-12-20T12:14:39;10.52;;;5.93;;
27201;SDS011;14717;46.924;15.474;2023-12-20T12:17:09;13.13;;;6.85;;
27201;SDS011;14717;46.924;15.474;2023-12-20T12:19:39;14.82;;;6.75;;
27201;SDS011;14717;46.924;15.474;2023-12-20T12:22:08;10.65;;;6.00;;
27201;SDS011;14717;46.924;15.474;2023-12-20T12:24:37;13.00;;;6.30;;
27201;SDS011;14717;46.924;15.474;2023-12-20T12:27:03;16.08;;;6.50;;
27201;SDS011;14717;46.924;15.474;2023-12-20T12:29:30;14.93;;;6.50;;
27201;SDS011;14717;46.924;15.474;2023-12-20T12:31:56;11.30;;;6.18;;
27201;SDS011;14717;46.924;15.474;2023-12-20T12:34:21;11.80;;;5.60;;
27201;SDS011;14717;46.924;15.474;2023-12-20T12:36:46;11.60;;;6.07;;
27201;SDS011;14717;46.924;15.474;2023-12-20T12:39:13;12.65;;;6.93;;
27201;SDS011;14717;46.924;15.474;2023-12-20T12:41:40;13.38;;;7.05;;
27201;SDS011;14717;46.924;15.474;2023-12-20T12:44:06;13.65;;;6.20;;
27201;SDS011;14717;46.924;15.474;2023-12-20T12:46:31;16.77;;;8.05;;
27201;SDS011;14717;46.924;15.474;2023-12-20T12:48:57;15.63;;;8.07;;
27201;SDS011;14717;46.924;15.474;2023-12-20T12:51:23;13.18;;;7.78;;
27201;SDS011;14717;46.924;15.474;2023-12-20T12:53:48;10.85;;;5.93;;
27201;SDS011;14717;46.924;15.474;2023-12-20T12:56:14;11.88;;;6.60;;
27201;SDS011;14717;46.924;15.474;2023-12-20T12:58:40;16.25;;;7.90;;
27201;SDS011;14717;46.924;15.474;2023-12-20T13:01:05;35.75;;;12.77;;
27201;SDS011;14717;46.924;15.474;2023-12-20T13:03:31;29.13;;;10.88;;
27201;SDS011;14717;46.924;15.474;2023-12-20T13:05:56;25.30;;;9.70;;
27201;SDS011;14717;46.924;15.474;2023-12-20T13:08:21;20.02;;;10.18;;
27201;SDS011;14717;46.924;15.474;2023-12-20T13:10:47;26.98;;;12.80;;
27201;SDS011;14717;46.924;15.474;2023-12-20T13:13:12;19.75;;;11.00;;
27201;SDS011;14717;46.924;15.474;2023-12-20T13:15:38;23.85;;;11.38;;
27201;SDS011;14717;46.924;15.474;2023-12-20T13:18:03;20.00;;;9.30;;
27201;SDS011;14717;46.924;15.474;2023-12-20T13:20:30;22.35;;;10.50;;
27201;SDS011;14717;46.924;15.474;2023-12-20T13:22:56;20.48;;;9.10;;
27201;SDS011;14717;46.924;15.474;2023-12-20T13:25:21;15.82;;;8.50;;
27201;SDS011;14717;46.924;15.474;2023-12-20T13:27:46;22.55;;;11.00;;
27201;SDS011;14717;46.924;15.474;2023-12-20T13:30:12;31.73;;;12.52;;
27201;SDS011;14717;46.924;15.474;2023-12-20T13:32:38;15.38;;;9.85;;
27201;SDS011;14717;46.924;15.474;2023-12-20T13:35:03;18.08;;;9.43;;
27201;SDS011;14717;46.924;15.474;2023-12-20T13:37:29;16.98;;;9.05;;
27201;SDS011;14717;46.924;15.474;2023-12-20T13:39:55;20.52;;;10.10;;
27201;SDS011;14717;46.924;15.474;2023-12-20T13:42:20;21.17;;;10.40;;
27201;SDS011;14717;46.924;15.474;2023-12-20T13:44:45;22.40;;;10.68;;
27201;SDS011;14717;46.924;15.474;2023-12-20T13:47:11;24.00;;;10.98;;
27201;SDS011;14717;46.924;15.474;2023-12-20T13:49:37;19.08;;;8.98;;
27201;SDS011;14717;46.924;15.474;2023-12-20T13:52:02;17.48;;;10.15;;
27201;SDS011;14717;46.924;15.474;2023-12-20T13:56:54;18.42;;;9.60;;
27201;SDS011;14717;46.924;15.474;2023-12-20T13:59:19;15.05;;;8.98;;
27201;SDS011;14717;46.924;15.474;2023-12-20T14:01:45;21.55;;;9.52;;
27201;SDS011;14717;46.924;15.474;2023-12-20T14:04:10;17.50;;;9.57;;
27201;SDS011;14717;46.924;15.474;2023-12-20T14:06:36;20.92;;;11.43;;
27201;SDS011;14717;46.924;15.474;2023-12-20T14:09:02;20.42;;;10.13;;
27201;SDS011;14717;46.924;15.474;2023-12-20T14:11:28;20.65;;;11.10;;
27201;SDS011;14717;46.924;15.474;2023-12-20T14:13:53;23.80;;;11.60;;
27201;SDS011;14717;46.924;15.474;2023-12-20T14:16:23;24.65;;;12.68;;
27201;SDS011;14717;46.924;15.474;2023-12-20T14:18:49;22.50;;;12.00;;
27201;SDS011;14717;46.924;15.474;2023-12-20T14:21:16;26.08;;;11.40;;
27201;SDS011;14717;46.924;15.474;2023-12-20T14:23:42;22.77;;;10.60;;
27201;SDS011;14717;46.924;15.474;2023-12-20T14:26:08;24.80;;;12.90;;